sensor_id;sensor_type;location;lat;lon;timestamp;P1;durP1;ratioP1;P2;durP2;ratioP2
5491;SDS011;2768;53.540;10.224;2022-07-19T00:04:36;6.83;;;4.90;;
5491;SDS011;2768;53.540;10.224;2022-07-19T00:10:29;6.50;;;5.00;;
5491;SDS011;2768;53.540;10.224;2022-07-19T00:16:23;5.43;;;4.63;;
5491;SDS011;2768;53.540;10.224;2022-07-19T00:22:17;7.07;;;5.30;;
5491;SDS011;2768;53.540;10.224;2022-07-19T00:28:10;6.03;;;5.33;;
5491;SDS011;2768;53.540;10.224;2022-07-19T00:34:04;7.67;;;5.67;;
5491;SDS011;2768;53.540;10.224;2022-07-19T00:39:58;7.67;;;5.43;;
5491;SDS011;2768;53.540;10.224;2022-07-19T00:45:51;5.83;;;5.23;;
5491;SDS011;2768;53.540;10.224;2022-07-19T00:51:48;6.30;;;5.30;;
5491;SDS011;2768;53.540;10.224;2022-07-19T00:57:51;5.70;;;5.07;;
5491;SDS011;2768;53.540;10.224;2022-07-19T01:03:49;7.30;;;5.10;;
5491;SDS011;2768;53.540;10.224;2022-07-19T01:09:47;5.73;;;4.90;;
5491;SDS011;2768;53.540;10.224;2022-07-19T01:15:43;5.60;;;5.10;;
5491;SDS011;2768;53.540;10.224;2022-07-19T01:21:39;6.90;;;5.57;;
5491;SDS011;2768;53.540;10.224;2022-07-19T01:27:45;5.63;;;5.03;;
5491;SDS011;2768;53.540;10.224;2022-07-19T01:33:41;4.90;;;4.50;;
5491;SDS011;2768;53.540;10.224;2022-07-19T01:39:38;5.97;;;5.23;;
5491;SDS011;2768;53.540;10.224;2022-07-19T01:45:33;6.13;;;5.53;;
5491;SDS011;2768;53.540;10.224;2022-07-19T01:51:28;6.00;;;5.40;;
5491;SDS011;2768;53.540;10.224;2022-07-19T01:57:25;5.70;;;5.20;;
5491;SDS011;2768;53.540;10.224;2022-07-19T02:03:19;7.13;;;5.87;;
5491;SDS011;2768;53.540;10.224;2022-07-19T02:09:12;5.37;;;4.87;;
5491;SDS011;2768;53.540;10.224;2022-07-19T02:15:07;6.00;;;5.40;;
5491;SDS011;2768;53.540;10.224;2022-07-19T02:21:03;5.77;;;5.17;;
5491;SDS011;2768;53.540;10.224;2022-07-19T02:26:57;6.33;;;5.20;;
5491;SDS011;2768;53.540;10.224;2022-07-19T02:32:54;10.53;;;5.33;;
5491;SDS011;2768;53.540;10.224;2022-07-19T02:38:49;6.43;;;5.70;;
5491;SDS011;2768;53.540;10.224;2022-07-19T02:44:43;8.10;;;5.97;;
5491;SDS011;2768;53.540;10.224;2022-07-19T02:50:37;7.97;;;6.07;;
5491;SDS011;2768;53.540;10.224;2022-07-19T02:56:30;6.20;;;5.50;;
5491;SDS011;2768;53.540;10.224;2022-07-19T03:02:24;7.60;;;5.80;;
5491;SDS011;2768;53.540;10.224;2022-07-19T03:08:21;6.60;;;5.70;;
5491;SDS011;2768;53.540;10.224;2022-07-19T03:14:24;6.57;;;5.97;;
5491;SDS011;2768;53.540;10.224;2022-07-19T03:20:19;8.00;;;7.20;;
5491;SDS011;2768;53.540;10.224;2022-07-19T03:26:16;6.60;;;5.90;;
5491;SDS011;2768;53.540;10.224;2022-07-19T03:32:09;6.90;;;6.20;;
5491;SDS011;2768;53.540;10.224;2022-07-19T03:38:02;7.03;;;6.37;;
5491;SDS011;2768;53.540;10.224;2022-07-19T03:43:59;9.67;;;5.80;;
5491;SDS011;2768;53.540;10.224;2022-07-19T03:49:53;5.87;;;5.20;;
5491;SDS011;2768;53.540;10.224;2022-07-19T03:55:46;6.47;;;5.87;;
5491;SDS011;2768;53.540;10.224;2022-07-19T04:01:40;6.23;;;5.63;;
5491;SDS011;2768;53.540;10.224;2022-07-19T04:07:34;6.80;;;5.97;;
5491;SDS011;2768;53.540;10.224;2022-07-19T04:13:27;6.93;;;5.43;;
5491;SDS011;2768;53.540;10.224;2022-07-19T04:19:22;8.03;;;6.20;;
5491;SDS011;2768;53.540;10.224;2022-07-19T04:25:15;9.00;;;5.80;;
5491;SDS011;2768;53.540;10.224;2022-07-19T04:31:11;10.23;;;6.27;;
5491;SDS011;2768;53.540;10.224;2022-07-19T04:37:18;7.50;;;5.90;;
5491;SDS011;2768;53.540;10.224;2022-07-19T04:43:11;7.13;;;6.43;;
5491;SDS011;2768;53.540;10.224;2022-07-19T04:49:07;6.77;;;6.17;;
5491;SDS011;2768;53.540;10.224;2022-07-19T04:55:02;8.33;;;6.40;;
5491;SDS011;2768;53.540;10.224;2022-07-19T05:00:55;7.50;;;6.37;;
5491;SDS011;2768;53.540;10.224;2022-07-19T05:07:02;8.20;;;6.13;;
5491;SDS011;2768;53.540;10.224;2022-07-19T05:12:57;8.37;;;6.50;;
5491;SDS011;2768;53.540;10.224;2022-07-19T05:18:50;10.53;;;6.60;;
5491;SDS011;2768;53.540;10.224;2022-07-19T05:24:43;11.90;;;6.90;;
5491;SDS011;2768;53.540;10.224;2022-07-19T05:30:40;9.20;;;6.50;;
5491;SDS011;2768;53.540;10.224;2022-07-19T05:36:34;13.33;;;6.50;;
5491;SDS011;2768;53.540;10.224;2022-07-19T05:42:27;10.23;;;6.47;;
5491;SDS011;2768;53.540;10.224;2022-07-19T05:48:22;9.17;;;5.90;;
5491;SDS011;2768;53.540;10.224;2022-07-19T05:54:15;7.73;;;5.73;;
5491;SDS011;2768;53.540;10.224;2022-07-19T06:00:09;9.07;;;5.70;;
5491;SDS011;2768;53.540;10.224;2022-07-19T06:06:03;8.30;;;6.40;;
5491;SDS011;2768;53.540;10.224;2022-07-19T06:11:57;11.53;;;5.67;;
5491;SDS011;2768;53.540;10.224;2022-07-19T06:17:50;8.57;;;6.10;;
5491;SDS011;2768;53.540;10.224;2022-07-19T06:23:47;11.77;;;6.10;;
5491;SDS011;2768;53.540;10.224;2022-07-19T06:29:41;9.57;;;6.00;;
5491;SDS011;2768;53.540;10.224;2022-07-19T06:35:34;7.63;;;5.30;;
5491;SDS011;2768;53.540;10.224;2022-07-19T06:41:28;10.67;;;5.87;;
5491;SDS011;2768;53.540;10.224;2022-07-19T06:47:21;6.13;;;5.33;;
5491;SDS011;2768;53.540;10.224;2022-07-19T06:53:15;7.57;;;6.87;;
5491;SDS011;2768;53.540;10.224;2022-07-19T06:59:09;6.30;;;5.70;;
5491;SDS011;2768;53.540;10.224;2022-07-19T07:05:03;5.77;;;5.20;;
5491;SDS011;2768;53.540;10.224;2022-07-19T07:10:57;5.97;;;4.90;;
5491;SDS011;2768;53.540;10.224;2022-07-19T07:16:51;8.67;;;5.67;;
5491;SDS011;2768;53.540;10.224;2022-07-19T07:22:45;9.00;;;5.13;;
5491;SDS011;2768;53.540;10.224;2022-07-19T07:28:38;6.70;;;6.00;;
5491;SDS011;2768;53.540;10.224;2022-07-19T07:34:32;7.23;;;4.70;;
5491;SDS011;2768;53.540;10.224;2022-07-19T07:40:28;5.93;;;5.23;;
5491;SDS011;2768;53.540;10.224;2022-07-19T07:46:24;5.90;;;4.60;;
5491;SDS011;2768;53.540;10.224;2022-07-19T07:52:18;5.90;;;5.00;;
5491;SDS011;2768;53.540;10.224;2022-07-19T07:58:12;6.77;;;5.20;;
5491;SDS011;2768;53.540;10.224;2022-07-19T08:04:07;5.73;;;4.73;;
5491;SDS011;2768;53.540;10.224;2022-07-19T08:10:07;6.27;;;4.97;;
5491;SDS011;2768;53.540;10.224;2022-07-19T08:16:03;8.10;;;5.07;;
5491;SDS011;2768;53.540;10.224;2022-07-19T08:21:57;5.63;;;5.10;;
5491;SDS011;2768;53.540;10.224;2022-07-19T08:27:54;7.50;;;4.83;;
5491;SDS011;2768;53.540;10.224;2022-07-19T08:33:49;5.00;;;4.23;;
5491;SDS011;2768;53.540;10.224;2022-07-19T08:39:42;6.23;;;4.50;;
5491;SDS011;2768;53.540;10.224;2022-07-19T08:45:41;6.07;;;4.53;;
5491;SDS011;2768;53.540;10.224;2022-07-19T08:51:39;5.67;;;4.30;;
5491;SDS011;2768;53.540;10.224;2022-07-19T08:57:34;4.70;;;4.30;;
5491;SDS011;2768;53.540;10.224;2022-07-19T09:04:08;4.60;;;4.20;;
5491;SDS011;2768;53.540;10.224;2022-07-19T09:10:19;11.87;;;4.30;;
5491;SDS011;2768;53.540;10.224;2022-07-19T09:16:13;4.93;;;4.53;;
5491;SDS011;2768;53.540;10.224;2022-07-19T09:22:09;6.80;;;4.17;;
5491;SDS011;2768;53.540;10.224;2022-07-19T09:28:04;7.00;;;4.03;;
5491;SDS011;2768;53.540;10.224;2022-07-19T09:33:58;3.93;;;3.63;;
5491;SDS011;2768;53.540;10.224;2022-07-19T09:39:54;7.77;;;4.50;;
5491;SDS011;2768;53.540;10.224;2022-07-19T09:45:51;6.73;;;4.20;;
5491;SDS011;2768;53.540;10.224;2022-07-19T09:51:48;5.60;;;3.70;;
5491;SDS011;2768;53.540;10.224;2022-07-19T09:57:53;8.17;;;3.50;;
5491;SDS011;2768;53.540;10.224;2022-07-19T10:03:49;4.23;;;3.40;;
5491;SDS011;2768;53.540;10.224;2022-07-19T10:09:43;4.20;;;3.80;;
5491;SDS011;2768;53.540;10.224;2022-07-19T10:15:39;4.10;;;3.77;;
5491;SDS011;2768;53.540;10.224;2022-07-19T10:21:36;3.33;;;3.03;;
5491;SDS011;2768;53.540;10.224;2022-07-19T10:27:40;3.60;;;2.80;;
5491;SDS011;2768;53.540;10.224;2022-07-19T10:33:36;3.33;;;2.63;;
5491;SDS011;2768;53.540;10.224;2022-07-19T10:39:29;3.30;;;2.90;;
5491;SDS011;2768;53.540;10.224;2022-07-19T10:45:32;3.10;;;2.80;;
5491;SDS011;2768;53.540;10.224;2022-07-19T10:51:30;3.20;;;2.70;;
5491;SDS011;2768;53.540;10.224;2022-07-19T11:03:39;4.50;;;3.20;;
5491;SDS011;2768;53.540;10.224;2022-07-19T11:09:44;3.00;;;2.70;;
5491;SDS011;2768;53.540;10.224;2022-07-19T11:15:39;4.10;;;2.47;;
5491;SDS011;2768;53.540;10.224;2022-07-19T11:21:43;2.60;;;2.40;;
5491;SDS011;2768;53.540;10.224;2022-07-19T11:27:40;3.20;;;2.90;;
5491;SDS011;2768;53.540;10.224;2022-07-19T11:33:34;2.00;;;1.90;;
5491;SDS011;2768;53.540;10.224;2022-07-19T11:39:44;3.07;;;1.97;;
5491;SDS011;2768;53.540;10.224;2022-07-19T11:45:43;1.97;;;1.87;;
5491;SDS011;2768;53.540;10.224;2022-07-19T11:51:38;2.63;;;2.10;;
5491;SDS011;2768;53.540;10.224;2022-07-19T11:57:31;2.33;;;2.20;;
5491;SDS011;2768;53.540;10.224;2022-07-19T12:03:27;2.60;;;2.40;;
5491;SDS011;2768;53.540;10.224;2022-07-19T12:09:25;2.80;;;2.60;;
5491;SDS011;2768;53.540;10.224;2022-07-19T12:21:54;1.90;;;1.80;;
5491;SDS011;2768;53.540;10.224;2022-07-19T12:27:57;3.10;;;1.93;;
5491;SDS011;2768;53.540;10.224;2022-07-19T12:33:57;2.20;;;2.10;;
5491;SDS011;2768;53.540;10.224;2022-07-19T12:40:03;3.50;;;1.83;;
5491;SDS011;2768;53.540;10.224;2022-07-19T12:45:59;2.23;;;2.03;;
5491;SDS011;2768;53.540;10.224;2022-07-19T12:51:53;3.23;;;1.80;;
5491;SDS011;2768;53.540;10.224;2022-07-19T12:57:48;1.97;;;1.87;;
5491;SDS011;2768;53.540;10.224;2022-07-19T13:03:42;2.23;;;2.13;;
5491;SDS011;2768;53.540;10.224;2022-07-19T13:09:36;2.30;;;1.80;;
5491;SDS011;2768;53.540;10.224;2022-07-19T13:15:33;3.53;;;1.87;;
5491;SDS011;2768;53.540;10.224;2022-07-19T13:21:26;2.07;;;1.97;;
5491;SDS011;2768;53.540;10.224;2022-07-19T13:27:19;3.20;;;2.10;;
5491;SDS011;2768;53.540;10.224;2022-07-19T13:33:23;2.27;;;2.10;;
5491;SDS011;2768;53.540;10.224;2022-07-19T13:39:16;2.87;;;2.03;;
5491;SDS011;2768;53.540;10.224;2022-07-19T13:45:09;2.63;;;2.10;;
5491;SDS011;2768;53.540;10.224;2022-07-19T13:51:06;3.10;;;2.03;;
5491;SDS011;2768;53.540;10.224;2022-07-19T13:57:00;4.43;;;2.40;;
5491;SDS011;2768;53.540;10.224;2022-07-19T14:02:53;2.20;;;2.00;;
5491;SDS011;2768;53.540;10.224;2022-07-19T14:08:48;4.10;;;2.50;;
5491;SDS011;2768;53.540;10.224;2022-07-19T14:14:41;3.50;;;1.90;;
5491;SDS011;2768;53.540;10.224;2022-07-19T14:20:34;5.30;;;2.63;;
5491;SDS011;2768;53.540;10.224;2022-07-19T14:26:31;3.00;;;2.20;;
5491;SDS011;2768;53.540;10.224;2022-07-19T14:32:24;5.80;;;2.10;;
5491;SDS011;2768;53.540;10.224;2022-07-19T14:38:20;2.63;;;2.43;;
5491;SDS011;2768;53.540;10.224;2022-07-19T14:44:16;3.77;;;1.97;;
5491;SDS011;2768;53.540;10.224;2022-07-19T14:50:11;2.40;;;2.20;;
5491;SDS011;2768;53.540;10.224;2022-07-19T14:56:05;2.27;;;2.13;;
5491;SDS011;2768;53.540;10.224;2022-07-19T15:02:00;3.80;;;2.30;;
5491;SDS011;2768;53.540;10.224;2022-07-19T15:07:59;2.13;;;1.93;;
5491;SDS011;2768;53.540;10.224;2022-07-19T15:13:51;4.67;;;1.97;;
5491;SDS011;2768;53.540;10.224;2022-07-19T15:19:51;2.67;;;2.20;;
5491;SDS011;2768;53.540;10.224;2022-07-19T15:25:51;2.37;;;2.17;;
5491;SDS011;2768;53.540;10.224;2022-07-19T15:31:44;3.60;;;2.33;;
5491;SDS011;2768;53.540;10.224;2022-07-19T15:37:42;2.53;;;2.00;;
5491;SDS011;2768;53.540;10.224;2022-07-19T15:43:35;2.50;;;2.03;;
5491;SDS011;2768;53.540;10.224;2022-07-19T15:49:28;1.93;;;1.83;;
5491;SDS011;2768;53.540;10.224;2022-07-19T15:55:26;2.23;;;1.83;;
5491;SDS011;2768;53.540;10.224;2022-07-19T16:01:21;2.37;;;1.70;;
5491;SDS011;2768;53.540;10.224;2022-07-19T16:07:14;2.33;;;2.13;;
5491;SDS011;2768;53.540;10.224;2022-07-19T16:13:11;4.40;;;1.30;;
5491;SDS011;2768;53.540;10.224;2022-07-19T16:19:09;3.60;;;1.57;;
5491;SDS011;2768;53.540;10.224;2022-07-19T16:25:03;1.30;;;1.20;;
5491;SDS011;2768;53.540;10.224;2022-07-19T16:30:59;3.50;;;1.33;;
5491;SDS011;2768;53.540;10.224;2022-07-19T16:36:55;1.57;;;1.47;;
5491;SDS011;2768;53.540;10.224;2022-07-19T16:42:50;2.10;;;1.60;;
5491;SDS011;2768;53.540;10.224;2022-07-19T16:49:04;1.63;;;1.53;;
5491;SDS011;2768;53.540;10.224;2022-07-19T16:55:03;1.63;;;1.53;;
5491;SDS011;2768;53.540;10.224;2022-07-19T17:00:57;2.27;;;1.53;;
5491;SDS011;2768;53.540;10.224;2022-07-19T17:06:51;6.77;;;2.03;;
5491;SDS011;2768;53.540;10.224;2022-07-19T17:12:44;5.50;;;1.70;;
5491;SDS011;2768;53.540;10.224;2022-07-19T17:18:38;2.50;;;1.67;;
5491;SDS011;2768;53.540;10.224;2022-07-19T17:24:32;4.30;;;1.90;;
5491;SDS011;2768;53.540;10.224;2022-07-19T17:30:36;2.50;;;2.30;;
5491;SDS011;2768;53.540;10.224;2022-07-19T17:36:36;3.07;;;2.30;;
5491;SDS011;2768;53.540;10.224;2022-07-19T17:42:37;3.00;;;2.40;;
5491;SDS011;2768;53.540;10.224;2022-07-19T17:48:31;4.73;;;2.50;;
5491;SDS011;2768;53.540;10.224;2022-07-19T17:54:24;4.50;;;2.50;;
5491;SDS011;2768;53.540;10.224;2022-07-19T18:00:18;4.33;;;2.27;;
5491;SDS011;2768;53.540;10.224;2022-07-19T18:06:11;2.73;;;2.33;;
5491;SDS011;2768;53.540;10.224;2022-07-19T18:12:05;2.30;;;2.03;;
5491;SDS011;2768;53.540;10.224;2022-07-19T18:17:59;4.73;;;2.13;;
5491;SDS011;2768;53.540;10.224;2022-07-19T18:23:52;4.93;;;3.00;;
5491;SDS011;2768;53.540;10.224;2022-07-19T18:29:47;6.77;;;3.80;;
5491;SDS011;2768;53.540;10.224;2022-07-19T18:35:45;9.10;;;4.27;;
5491;SDS011;2768;53.540;10.224;2022-07-19T18:41:38;6.97;;;4.20;;
5491;SDS011;2768;53.540;10.224;2022-07-19T18:47:32;6.83;;;3.60;;
5491;SDS011;2768;53.540;10.224;2022-07-19T18:53:26;7.13;;;4.00;;
5491;SDS011;2768;53.540;10.224;2022-07-19T18:59:19;5.33;;;3.47;;
5491;SDS011;2768;53.540;10.224;2022-07-19T19:05:23;7.80;;;4.00;;
5491;SDS011;2768;53.540;10.224;2022-07-19T19:11:18;5.87;;;3.50;;
5491;SDS011;2768;53.540;10.224;2022-07-19T19:17:10;5.50;;;3.63;;
5491;SDS011;2768;53.540;10.224;2022-07-19T19:23:05;5.10;;;3.97;;
5491;SDS011;2768;53.540;10.224;2022-07-19T19:28:59;6.43;;;4.13;;
5491;SDS011;2768;53.540;10.224;2022-07-19T19:34:53;5.90;;;4.10;;
5491;SDS011;2768;53.540;10.224;2022-07-19T19:40:49;5.33;;;4.47;;
5491;SDS011;2768;53.540;10.224;2022-07-19T19:46:44;10.80;;;4.60;;
5491;SDS011;2768;53.540;10.224;2022-07-19T19:52:40;6.60;;;3.87;;
5491;SDS011;2768;53.540;10.224;2022-07-19T19:58:33;5.73;;;4.97;;
5491;SDS011;2768;53.540;10.224;2022-07-19T20:04:28;5.87;;;4.90;;
5491;SDS011;2768;53.540;10.224;2022-07-19T20:10:21;5.77;;;4.30;;
5491;SDS011;2768;53.540;10.224;2022-07-19T20:16:16;8.10;;;4.23;;
5491;SDS011;2768;53.540;10.224;2022-07-19T20:22:11;4.63;;;3.40;;
5491;SDS011;2768;53.540;10.224;2022-07-19T20:28:13;4.90;;;4.50;;
5491;SDS011;2768;53.540;10.224;2022-07-19T20:34:12;5.50;;;4.50;;
5491;SDS011;2768;53.540;10.224;2022-07-19T20:40:07;4.53;;;3.93;;
5491;SDS011;2768;53.540;10.224;2022-07-19T20:46:01;4.77;;;4.37;;
5491;SDS011;2768;53.540;10.224;2022-07-19T20:51:58;6.00;;;5.37;;
5491;SDS011;2768;53.540;10.224;2022-07-19T20:57:52;5.10;;;4.30;;
5491;SDS011;2768;53.540;10.224;2022-07-19T21:03:45;5.63;;;4.77;;
5491;SDS011;2768;53.540;10.224;2022-07-19T21:09:38;8.57;;;4.57;;
5491;SDS011;2768;53.540;10.224;2022-07-19T21:15:33;8.30;;;4.33;;
5491;SDS011;2768;53.540;10.224;2022-07-19T21:21:26;8.03;;;4.60;;
5491;SDS011;2768;53.540;10.224;2022-07-19T21:27:19;5.60;;;5.20;;
5491;SDS011;2768;53.540;10.224;2022-07-19T21:33:20;6.10;;;5.30;;
5491;SDS011;2768;53.540;10.224;2022-07-19T21:39:17;9.43;;;5.23;;
5491;SDS011;2768;53.540;10.224;2022-07-19T21:45:12;9.73;;;5.43;;
5491;SDS011;2768;53.540;10.224;2022-07-19T21:51:07;7.03;;;4.57;;
5491;SDS011;2768;53.540;10.224;2022-07-19T21:57:07;5.43;;;4.90;;
5491;SDS011;2768;53.540;10.224;2022-07-19T22:03:01;5.20;;;4.63;;
5491;SDS011;2768;53.540;10.224;2022-07-19T22:08:59;5.20;;;4.70;;
5491;SDS011;2768;53.540;10.224;2022-07-19T22:14:52;5.00;;;4.60;;
5491;SDS011;2768;53.540;10.224;2022-07-19T22:20:46;5.87;;;4.67;;
5491;SDS011;2768;53.540;10.224;2022-07-19T22:26:44;5.60;;;5.07;;
5491;SDS011;2768;53.540;10.224;2022-07-19T22:32:38;6.33;;;4.93;;
5491;SDS011;2768;53.540;10.224;2022-07-19T22:38:31;6.27;;;4.70;;
5491;SDS011;2768;53.540;10.224;2022-07-19T22:44:28;5.30;;;4.80;;
5491;SDS011;2768;53.540;10.224;2022-07-19T22:50:21;5.57;;;5.00;;
5491;SDS011;2768;53.540;10.224;2022-07-19T22:56:17;5.90;;;5.00;;
5491;SDS011;2768;53.540;10.224;2022-07-19T23:02:11;7.20;;;5.07;;
5491;SDS011;2768;53.540;10.224;2022-07-19T23:08:05;7.70;;;6.00;;
5491;SDS011;2768;53.540;10.224;2022-07-19T23:13:58;6.37;;;5.57;;
5491;SDS011;2768;53.540;10.224;2022-07-19T23:19:52;7.37;;;5.17;;
5491;SDS011;2768;53.540;10.224;2022-07-19T23:25:48;5.83;;;5.30;;
5491;SDS011;2768;53.540;10.224;2022-07-19T23:31:41;6.00;;;5.40;;
5491;SDS011;2768;53.540;10.224;2022-07-19T23:37:38;5.37;;;4.87;;
5491;SDS011;2768;53.540;10.224;2022-07-19T23:43:31;6.93;;;5.20;;
5491;SDS011;2768;53.540;10.224;2022-07-19T23:49:25;6.67;;;5.50;;
5491;SDS011;2768;53.540;10.224;2022-07-19T23:55:23;5.93;;;5.37;;
